HCMM

Aden Adde International Airport

Mogadishu, Somalia
METAR HCMM 211300Z 11016KT CAVOK 28/23 Q1009 NOSIG
Observed Flight Rules
Jan-21 @ 13:00 UTC (7 hours ago) Visual Flight Rules
Wind Visibility Clouds
110° at 16 knots 10,000+ meters
  • Clear skies
Temperatures Readings
Current 28°C / 82°F
Dewpoint 23°C / 73°F
Humidity 74%
Altimeter 29.79" Hg
Pressure 1009 hPa
Elevation 9
METAR HCMM 211300Z 11016KT CAVOK 28/23 Q1009 NOSIG
Observed Flight Rules
Jan-21 @ 13:00 UTC
(7 hours ago)
VFR
Wind Visibility
110° at 16 knots 10,000+ meters
Clouds
  • Clear skies
Temperature Dewpoint
28°C / 82°F 23°C / 73°F
Humidity Altimeter Pressure
74% 29.79" Hg 1009 hPa